createdAt,value
2023-04-03T00:02:35.518Z,71.3
2023-04-03T00:14:35.337Z,72.3
2023-04-03T00:26:35.437Z,72.2
2023-04-03T00:38:35.371Z,73.3
2023-04-03T00:50:35.597Z,73.7
2023-04-03T01:02:35.483Z,73.0
2023-04-03T01:14:35.404Z,73.8
2023-04-03T01:26:35.783Z,72.0
2023-04-03T01:38:35.386Z,71.8
2023-04-03T01:50:35.678Z,73.9
2023-04-03T02:02:35.388Z,74.6
2023-04-03T02:14:35.421Z,74.5
2023-04-03T02:26:35.408Z,75.1
2023-04-03T02:38:35.327Z,72.8
2023-04-03T02:50:35.656Z,74.4
2023-04-03T03:02:35.394Z,75.2
2023-04-03T03:14:35.425Z,75.7
2023-04-03T03:26:35.423Z,75.8
2023-04-03T03:38:35.444Z,75.9
2023-04-03T03:50:35.312Z,76.3
2023-04-03T04:02:35.660Z,75.9
2023-04-03T04:14:35.336Z,75.0
2023-04-03T04:26:35.369Z,75.5
2023-04-03T04:38:35.335Z,76.3
2023-04-03T04:50:35.435Z,76.3
2023-04-03T05:02:35.386Z,76.6
2023-04-03T05:14:35.322Z,77.2
2023-04-03T05:26:35.313Z,77.5
2023-04-03T05:38:35.456Z,76.6
2023-04-03T05:50:35.320Z,75.9
2023-04-03T06:02:35.356Z,75.3
2023-04-03T06:14:35.332Z,75.5
2023-04-03T06:26:35.318Z,72.8
2023-04-03T06:38:35.381Z,70.0
2023-04-03T06:50:35.308Z,68.6
2023-04-03T07:02:35.448Z,66.4
2023-04-03T07:14:35.424Z,66.2
2023-04-03T07:26:35.413Z,65.3
2023-04-03T07:38:35.411Z,65.3
2023-04-03T07:50:35.318Z,62.5
2023-04-03T08:02:35.337Z,62.6
2023-04-03T08:14:35.489Z,60.2
2023-04-03T08:26:35.332Z,66.7
2023-04-03T08:38:35.331Z,61.5
2023-04-03T08:50:36.279Z,64.7
2023-04-03T09:02:35.459Z,66.8
2023-04-03T09:14:35.332Z,57.2
2023-04-03T09:26:35.313Z,59.6
2023-04-03T09:38:35.325Z,60.7
2023-04-03T09:50:35.445Z,59.5
2023-04-03T10:02:35.425Z,57.6
2023-04-03T10:14:35.393Z,55.4
2023-04-03T10:26:35.319Z,56.8
2023-04-03T10:38:35.369Z,53.7
2023-04-03T10:50:35.428Z,56.9
2023-04-03T11:02:35.396Z,54.9
2023-04-03T11:14:35.431Z,49.1
2023-04-03T11:26:35.323Z,51.1
2023-04-03T11:38:35.312Z,46.0
2023-04-03T11:50:35.452Z,48.5
2023-04-03T12:02:47.507Z,49.5
2023-04-03T12:14:35.431Z,48.4
2023-04-03T12:26:45.879Z,48.6
2023-04-03T12:38:35.340Z,48.0
2023-04-03T12:50:35.422Z,49.7
2023-04-03T13:02:35.534Z,48.7
2023-04-03T13:14:35.375Z,49.6
2023-04-03T13:26:35.372Z,47.1
2023-04-03T13:38:35.305Z,45.2
2023-04-03T13:50:35.475Z,43.7
2023-04-03T14:02:35.432Z,44.4
2023-04-03T14:14:35.450Z,44.8
2023-04-03T14:26:35.318Z,44.0
2023-04-03T14:38:35.347Z,43.8
2023-04-03T14:50:35.342Z,43.6
2023-04-03T15:02:35.613Z,45.8
2023-04-03T15:14:37.120Z,42.6
2023-04-03T15:26:35.373Z,44.1
2023-04-03T15:38:35.311Z,44.3
2023-04-03T15:50:35.477Z,41.6
2023-04-03T16:02:35.520Z,41.7
2023-04-03T16:14:35.366Z,43.1
2023-04-03T16:26:35.421Z,43.8
2023-04-03T16:38:35.351Z,47.6
2023-04-03T16:50:35.483Z,44.3
2023-04-03T17:06:17.765Z,47.0
2023-04-03T17:18:17.793Z,47.8
2023-04-03T17:30:17.715Z,48.1
2023-04-03T17:42:17.783Z,49.7
2023-04-03T17:54:17.785Z,50.3
2023-04-03T18:06:17.788Z,51.5
2023-04-03T18:18:17.778Z,50.9
2023-04-03T18:30:17.834Z,52.2
2023-04-03T18:42:17.690Z,51.6
2023-04-03T18:54:17.672Z,54.8
2023-04-03T19:06:17.788Z,55.5
2023-04-03T19:18:17.778Z,54.8
2023-04-03T19:30:17.685Z,55.2
2023-04-03T19:42:17.682Z,56.0
2023-04-03T19:54:17.702Z,56.5
2023-04-03T20:06:17.677Z,55.4
2023-04-03T20:18:17.965Z,56.4
2023-04-03T20:30:17.789Z,57.0
2023-04-03T20:42:17.676Z,57.1
2023-04-03T20:54:17.681Z,57.5
2023-04-03T21:06:17.804Z,57.9
2023-04-03T21:18:17.667Z,58.8
2023-04-03T21:30:17.782Z,61.1
2023-04-03T21:42:17.683Z,65.5
2023-04-03T21:54:17.686Z,63.7
2023-04-03T22:06:17.692Z,62.4
2023-04-03T22:18:17.685Z,64.8
2023-04-03T22:30:17.768Z,64.0
2023-04-03T22:42:17.777Z,69.8
2023-04-03T22:54:17.788Z,71.7
2023-04-03T23:06:17.776Z,72.1
2023-04-03T23:18:17.722Z,73.6
2023-04-03T23:30:17.745Z,73.2
2023-04-03T23:42:17.856Z,74.1
2023-04-03T23:54:17.797Z,76.9
